Time;durP1;ratioP1;P1;durP2;ratioP2;P2;SDS_P1;SDS_P2;PMS_P1;PMS_P2;Temp;Humidity;BMP_temperature;BMP_pressure;BME280_temperature;BME280_humidity;BME280_pressure;Samples;Min_cycle;Max_cycle;Signal;HPM_P1;HPM_P2
2023/10/13 00:00:25;;;;;;;9.35;6.97;;;;;;;23.38;58.89;99325.78;2077384;28;20048;-67
2023/10/13 00:01:27;;;;;;;11.25;7.53;;;;;;;23.33;58.44;99320.19;2077568;28;20049;-67
2023/10/13 00:02:28;;;;;;;9.77;8.20;;;;;;;23.22;59.23;99329.00;2079717;28;20148;-67
2023/10/13 00:03:31;;;;;;;12.45;7.47;;;;;;;23.21;59.52;99328.19;2081094;28;20163;-68
2023/10/13 00:04:35;;;;;;;9.73;7.07;;;;;;;23.27;59.02;99324.59;2079237;28;20160;-67
2023/10/13 00:05:37;;;;;;;9.77;7.57;;;;;;;23.29;58.90;99329.78;2082167;28;20052;-68
2023/10/13 00:06:38;;;;;;;11.05;7.95;;;;;;;23.27;59.23;99327.31;2078673;28;20081;-67
2023/10/13 00:07:40;;;;;;;10.05;8.32;;;;;;;23.24;59.26;99322.31;2079822;28;20057;-67
2023/10/13 00:08:41;;;;;;;12.63;8.00;;;;;;;23.23;59.14;99326.06;2082704;28;20049;-67
2023/10/13 00:09:43;;;;;;;12.38;8.65;;;;;;;23.26;58.79;99324.81;2079468;28;20073;-67
2023/10/13 00:10:45;;;;;;;12.45;8.93;;;;;;;23.28;58.83;99320.00;2079806;28;20427;-67
2023/10/13 00:11:47;;;;;;;12.82;8.70;;;;;;;23.26;59.05;99320.22;2080434;28;20060;-66
2023/10/13 00:12:49;;;;;;;9.02;7.03;;;;;;;23.27;58.69;99315.66;2080901;28;20053;-67
2023/10/13 00:13:52;;;;;;;7.93;6.32;;;;;;;23.31;58.62;99317.69;2077986;28;20587;-67
2023/10/13 00:14:53;;;;;;;12.45;7.70;;;;;;;23.29;58.88;99317.09;2080006;28;20041;-67
2023/10/13 00:15:58;;;;;;;10.07;7.95;;;;;;;23.28;58.92;99318.13;2078698;28;20145;-67
2023/10/13 00:17:08;;;;;;;10.00;7.25;;;;;;;23.26;58.96;99317.50;2081325;28;20127;-68
2023/10/13 00:18:12;;;;;;;7.57;6.55;;;;;;;23.23;59.13;99320.66;2080475;28;20057;-67
2023/10/13 00:19:13;;;;;;;12.13;7.32;;;;;;;23.24;59.07;99326.91;2080173;28;20987;-66
2023/10/13 00:20:38;;;;;;;8.40;7.35;;;;;;;23.23;58.82;99317.94;2080474;28;20045;-67
2023/10/13 00:21:36;;;;;;;10.60;6.95;;;;;;;23.23;59.10;99317.94;2080582;28;20053;-68
2023/10/13 00:22:40;;;;;;;6.72;5.75;;;;;;;23.26;58.91;99327.50;2078463;28;20642;-67
2023/10/13 00:23:52;;;;;;;10.38;7.00;;;;;;;23.25;58.60;99325.84;2079795;28;20518;-67
2023/10/13 00:24:58;;;;;;;10.25;6.90;;;;;;;23.24;58.91;99319.63;2080862;28;20053;-67
2023/10/13 00:26:02;;;;;;;8.25;6.30;;;;;;;23.23;59.01;99327.94;2077274;28;20083;-67
2023/10/13 00:27:11;;;;;;;10.98;6.32;;;;;;;23.23;58.56;99323.34;2080054;28;20053;-67
2023/10/13 00:28:22;;;;;;;8.02;6.53;;;;;;;23.23;58.79;99323.34;2080976;28;20045;-67
2023/10/13 00:29:31;;;;;;;;;;;;;;;23.13;59.17;99320.31;2080328;28;20048;-67
2023/10/13 00:30:33;;;;;;;7.05;5.97;;;;;;;23.17;59.07;99327.75;2077524;28;19928;-67
2023/10/13 00:31:38;;;;;;;9.07;6.53;;;;;;;23.22;58.97;99327.13;2080611;28;20430;-67
2023/10/13 00:32:40;;;;;;;7.53;5.50;;;;;;;23.23;58.86;99322.53;2079413;28;20045;-67
2023/10/13 00:33:42;;;;;;;9.32;6.70;;;;;;;23.23;58.92;99326.06;2079935;28;20049;-68
2023/10/13 00:34:43;;;;;;;9.30;6.80;;;;;;;23.24;59.08;99324.22;2080714;28;20063;-68
2023/10/13 00:35:47;;;;;;;11.98;6.72;;;;;;;23.26;59.01;99320.22;2080067;28;20483;-67
2023/10/13 00:36:48;;;;;;;8.05;6.78;;;;;;;23.29;59.06;99322.50;2078804;28;20059;-67
2023/10/13 00:37:53;;;;;;;10.77;7.53;;;;;;;23.29;59.21;99327.06;2082933;28;20090;-67
2023/10/13 00:38:56;;;;;;;9.68;7.35;;;;;;;23.23;59.38;99323.34;2079674;28;20710;-67
2023/10/13 00:39:58;;;;;;;11.40;7.97;;;;;;;23.17;59.63;99321.53;2080386;28;20049;-67
2023/10/13 00:41:06;;;;;;;10.65;9.32;;;;;;;23.15;59.71;99324.47;2077318;28;20053;-67
2023/10/13 00:42:17;;;;;;;13.48;7.50;;;;;;;23.13;59.79;99320.31;2081492;28;20048;-67
2023/10/13 00:43:34;;;;;;;11.52;8.82;;;;;;;23.12;59.79;99329.47;2078379;28;20056;-68
2023/10/13 00:44:39;;;;;;;9.75;7.80;;;;;;;23.13;59.86;99328.44;2079044;28;20064;-67
2023/10/13 00:45:44;;;;;;;12.00;7.57;;;;;;;23.14;59.69;99330.06;2079658;28;20084;-68
2023/10/13 00:46:45;;;;;;;9.30;7.15;;;;;;;23.15;59.56;99327.16;2080326;28;20052;-67
2023/10/13 00:47:49;;;;;;;8.38;6.57;;;;;;;23.18;59.57;99328.63;2081042;28;20049;-68
2023/10/13 00:48:52;;;;;;;11.82;8.68;;;;;;;23.17;59.64;99324.22;2084658;28;20083;-67
2023/10/13 00:49:53;;;;;;;11.48;8.48;;;;;;;23.16;59.49;99328.00;2077826;28;20049;-67
2023/10/13 00:50:56;;;;;;;9.75;7.53;;;;;;;23.17;59.34;99321.53;2079239;28;20045;-67
2023/10/13 00:51:58;;;;;;;7.35;6.60;;;;;;;23.18;59.32;99317.78;2081353;28;20111;-67
2023/10/13 00:53:00;;;;;;;9.88;6.97;;;;;;;23.21;59.11;99317.34;2079918;28;20048;-67
2023/10/13 00:54:07;;;;;;;8.00;7.20;;;;;;;23.22;59.30;99313.59;2069152;28;20136;-68
2023/10/13 00:55:11;;;;;;;8.52;6.28;;;;;;;23.17;59.49;99308.81;2078913;28;20052;-67
2023/10/13 00:56:26;;;;;;;9.95;7.53;;;;;;;23.14;59.71;99311.13;2080279;28;20053;-68
2023/10/13 00:57:28;;;;;;;8.02;6.72;;;;;;;23.06;59.88;99309.50;2079969;28;21615;-67
2023/10/13 00:58:29;;;;;;;9.95;6.63;;;;;;;23.00;60.29;99314.97;2079077;28;20052;-68
2023/10/13 00:59:33;;;;;;;8.25;6.85;;;;;;;22.97;60.20;99306.22;2076835;28;20519;-67
2023/10/13 01:00:46;;;;;;;9.32;7.43;;;;;;;22.96;60.56;99304.56;2081949;28;20061;-67
2023/10/13 01:01:53;;;;;;;9.80;7.88;;;;;;;23.02;60.20;99305.59;2076688;28;20172;-67
2023/10/13 01:02:55;;;;;;;7.97;6.93;;;;;;;23.04;60.30;99308.06;2081361;28;20466;-67
2023/10/13 01:04:01;;;;;;;11.73;7.07;;;;;;;23.02;60.26;99305.59;2078650;28;20048;-68
2023/10/13 01:05:03;;;;;;;11.77;7.03;;;;;;;23.03;59.79;99309.94;2080129;28;20052;-67
2023/10/13 01:06:04;;;;;;;8.93;6.70;;;;;;;23.08;59.79;99312.00;2077616;28;20048;-67
2023/10/13 01:07:07;;;;;;;9.32;7.68;;;;;;;23.08;59.89;99314.72;2079483;28;20818;-68
2023/10/13 01:08:10;;;;;;;8.02;6.50;;;;;;;23.09;59.50;99302.84;2080593;28;20099;-66
2023/10/13 01:09:13;;;;;;;8.73;7.05;;;;;;;23.11;59.78;99308.88;2081977;28;20049;-67
2023/10/13 01:10:15;;;;;;;7.68;6.88;;;;;;;23.11;59.65;99311.56;2079006;28;20057;-67
2023/10/13 01:11:18;;;;;;;9.05;7.40;;;;;;;23.11;59.71;99309.69;2078454;28;20041;-67
2023/10/13 01:12:19;;;;;;;10.38;6.78;;;;;;;23.10;59.53;99307.22;2081491;28;20068;-66
2023/10/13 01:13:21;;;;;;;7.15;6.28;;;;;;;23.10;59.62;99313.47;2081068;28;20056;-67
2023/10/13 01:14:27;;;;;;;9.88;6.95;;;;;;;23.09;59.93;99314.47;2079442;28;20049;-66
2023/10/13 01:15:30;;;;;;;8.77;6.15;;;;;;;23.08;59.31;99310.13;2077609;28;20395;-65
2023/10/13 01:16:30;;;;;;;10.32;6.75;;;;;;;23.10;59.52;99307.22;2077955;28;20136;-68
2023/10/13 01:17:31;;;;;;;9.20;6.30;;;;;;;23.12;59.53;99307.81;2079037;28;20056;-67
2023/10/13 01:18:39;;;;;;;11.00;6.45;;;;;;;23.12;59.26;99313.22;2080238;28;20249;-68
2023/10/13 01:19:42;;;;;;;9.07;6.55;;;;;;;23.10;59.64;99307.22;2079283;28;20054;-67
2023/10/13 01:20:45;;;;;;;8.35;6.32;;;;;;;23.10;59.47;99310.75;2079580;28;20052;-67
2023/10/13 01:21:49;;;;;;;10.15;7.15;;;;;;;23.10;59.51;99305.34;2081507;28;20080;-67
2023/10/13 01:22:55;;;;;;;8.43;7.07;;;;;;;23.10;59.59;99308.03;2079463;28;20056;-67
2023/10/13 01:23:57;;;;;;;7.65;5.65;;;;;;;23.11;59.25;99306.16;2081962;28;20473;-67
2023/10/13 01:25:06;;;;;;;7.47;5.95;;;;;;;23.08;59.78;99309.31;2079910;28;20045;-67
2023/10/13 01:26:09;;;;;;;10.35;6.13;;;;;;;23.08;59.54;99307.41;2079240;28;20052;-68
2023/10/13 01:27:17;;;;;;;8.20;6.45;;;;;;;23.11;59.69;99306.16;2079412;28;20085;-66
2023/10/13 01:28:18;;;;;;;6.13;5.53;;;;;;;23.11;59.41;99311.56;2080392;28;20054;-67
2023/10/13 01:29:26;;;;;;;8.57;6.50;;;;;;;23.12;59.70;99310.50;2079054;28;20058;-67
2023/10/13 01:30:29;;;;;;;8.43;6.47;;;;;;;23.09;59.53;99303.66;2078211;28;20186;-68
2023/10/13 01:31:37;;;;;;;9.98;7.53;;;;;;;23.08;59.54;99309.31;2080081;28;20741;-66
2023/10/13 01:32:43;;;;;;;9.68;6.43;;;;;;;23.06;59.34;99306.81;2080213;28;20099;-68
2023/10/13 01:33:43;;;;;;;7.95;5.90;;;;;;;23.06;59.45;99308.69;2082418;28;20167;-68
2023/10/13 01:34:46;;;;;;;7.63;5.93;;;;;;;23.07;59.46;99304.94;2077250;28;20049;-67
2023/10/13 01:35:48;;;;;;;7.60;6.25;;;;;;;23.08;59.26;99312.00;2080142;28;20053;-67
2023/10/13 01:36:51;;;;;;;9.35;6.70;;;;;;;23.09;59.13;99298.25;2078399;28;20397;-67
2023/10/13 01:37:52;;;;;;;6.43;5.57;;;;;;;23.10;59.04;99302.63;2083154;28;20051;-67
2023/10/13 01:38:53;;;;;;;7.40;5.25;;;;;;;23.13;59.07;99301.38;2080526;28;20419;-67
2023/10/13 01:39:56;;;;;;;8.00;5.45;;;;;;;23.13;58.91;99293.25;2077635;28;20041;-67
2023/10/13 01:40:58;;;;;;;9.73;6.00;;;;;;;23.11;59.47;99298.03;2080320;28;20059;-67
2023/10/13 01:42:00;;;;;;;10.20;5.45;;;;;;;23.11;59.29;99300.75;2082343;28;20626;-67
2023/10/13 01:43:04;;;;;;;7.22;5.28;;;;;;;23.10;59.29;99299.94;2066562;28;20427;-68
2023/10/13 01:44:05;;;;;;;7.22;5.68;;;;;;;23.09;59.18;99298.25;2075829;28;20131;-67
2023/10/13 01:45:07;;;;;;;7.55;6.25;;;;;;;23.08;59.32;99296.59;2079904;28;20052;-67
2023/10/13 01:46:09;;;;;;;6.85;6.13;;;;;;;23.07;59.33;99299.53;2078823;28;20313;-66
2023/10/13 01:47:12;;;;;;;8.20;6.72;;;;;;;23.03;59.32;99287.47;2078182;28;20050;-67
2023/10/13 01:48:15;;;;;;;7.13;5.68;;;;;;;23.03;59.44;99296.41;2080038;28;20075;-67
2023/10/13 01:49:16;;;;;;;7.70;5.95;;;;;;;23.04;59.53;99289.13;2076467;28;20604;-67
2023/10/13 01:50:21;;;;;;;7.05;5.60;;;;;;;23.06;59.78;99292.44;2079159;28;20053;-67
2023/10/13 01:51:27;;;;;;;8.80;6.60;;;;;;;23.03;59.67;99288.31;2080064;28;20503;-67
2023/10/13 01:52:29;;;;;;;8.27;5.65;;;;;;;23.04;59.69;99291.81;2077654;28;20080;-65
2023/10/13 01:53:31;;;;;;;5.82;5.22;;;;;;;23.06;59.35;99293.28;2079875;28;20136;-67
2023/10/13 01:54:32;;;;;;;8.38;6.57;;;;;;;23.07;59.29;99288.72;2079505;28;20522;-68
2023/10/13 01:55:39;;;;;;;8.60;6.25;;;;;;;23.10;59.55;99291.81;2078075;28;20147;-67
2023/10/13 01:56:42;;;;;;;6.80;5.88;;;;;;;23.07;59.48;99286.00;2077530;28;20796;-66
2023/10/13 01:57:47;;;;;;;7.03;5.78;;;;;;;23.03;59.59;99285.59;2078458;28;20496;-68
2023/10/13 01:58:48;;;;;;;6.53;5.78;;;;;;;23.04;59.78;99284.56;2077752;28;20053;-68
2023/10/13 01:59:49;;;;;;;7.65;5.43;;;;;;;23.05;59.60;99288.91;2070384;28;20560;-67
2023/10/13 02:00:51;;;;;;;8.13;5.68;;;;;;;23.03;59.79;99279.34;2077978;28;20052;-67
2023/10/13 02:01:55;;;;;;;6.85;5.97;;;;;;;23.02;59.87;99280.41;2079062;28;20057;-67
2023/10/13 02:03:00;;;;;;;7.10;5.65;;;;;;;23.01;59.88;99284.16;2079761;28;20072;-68
2023/10/13 02:04:03;;;;;;;6.53;5.53;;;;;;;23.01;59.95;99281.44;2076898;28;20059;-67
2023/10/13 02:05:05;;;;;;;5.47;4.85;;;;;;;23.01;60.08;99284.16;2078670;28;20068;-67
2023/10/13 02:06:06;;;;;;;8.52;5.50;;;;;;;23.01;59.69;99281.44;2079381;28;20416;-67
2023/10/13 02:07:09;;;;;;;9.00;6.45;;;;;;;23.02;59.89;99285.81;2076944;28;20049;-66
2023/10/13 02:08:17;;;;;;;6.43;5.63;;;;;;;23.02;59.76;99286.66;2079130;28;20527;-67
2023/10/13 02:09:25;;;;;;;8.48;4.68;;;;;;;23.05;59.67;99288.09;2075583;28;20060;-67
2023/10/13 02:10:28;;;;;;;6.07;4.78;;;;;;;23.03;59.95;99284.78;2077953;28;20677;-67
2023/10/13 02:11:31;;;;;;;6.28;5.65;;;;;;;23.02;59.75;99288.53;2074370;28;20085;-67
2023/10/13 02:12:37;;;;;;;8.27;4.85;;;;;;;23.02;59.71;99283.13;2076281;28;21889;-66
2023/10/13 02:13:48;;;;;;;7.55;5.80;;;;;;;23.03;59.77;99287.47;2078457;28;20056;-68
2023/10/13 02:14:50;;;;;;;7.40;5.47;;;;;;;23.00;59.67;99286.03;2077118;28;20132;-68
2023/10/13 02:15:56;;;;;;;11.18;5.93;;;;;;;23.01;59.83;99284.16;2077129;28;20049;-67
2023/10/13 02:17:12;;;;;;;7.85;5.90;;;;;;;23.00;59.61;99287.91;2072257;28;20048;-66
2023/10/13 02:18:20;;;;;;;7.20;5.47;;;;;;;23.00;59.90;99283.31;2079000;28;20110;-66
2023/10/13 02:19:21;;;;;;;7.15;5.45;;;;;;;23.00;59.55;99287.91;2078156;28;20083;-67
2023/10/13 02:20:23;;;;;;;6.55;4.95;;;;;;;23.00;59.67;99285.22;2077851;28;20049;-67
2023/10/13 02:21:31;;;;;;;10.77;6.38;;;;;;;23.01;59.64;99284.16;2074922;28;20545;-67
2023/10/13 02:22:32;;;;;;;6.53;5.85;;;;;;;23.01;59.55;99286.84;2078442;28;20103;-67
2023/10/13 02:23:33;;;;;;;9.05;6.03;;;;;;;23.01;59.66;99290.38;2077001;28;20522;-67
2023/10/13 02:24:33;;;;;;;6.57;5.95;;;;;;;23.01;59.65;99282.25;2078273;28;20049;-66
2023/10/13 02:25:42;;;;;;;7.20;5.13;;;;;;;23.02;59.41;99288.53;2073764;28;20049;-67
2023/10/13 02:26:45;;;;;;;9.05;5.40;;;;;;;23.05;59.67;99285.38;2077273;28;20063;-67
2023/10/13 02:27:58;;;;;;;7.45;5.90;;;;;;;23.03;59.68;99292.88;2077744;28;20053;-68
2023/10/13 02:29:03;;;;;;;8.25;5.25;;;;;;;23.01;59.64;99284.16;2079435;28;20124;-67
2023/10/13 02:30:05;;;;;;;6.45;5.72;;;;;;;23.04;59.32;99283.72;2076556;28;20046;-67
2023/10/13 02:31:06;;;;;;;6.72;5.55;;;;;;;23.05;59.66;99283.50;2076398;28;20049;-67
2023/10/13 02:32:18;;;;;;;6.80;4.88;;;;;;;23.06;59.34;99287.03;2078076;28;20114;-68
2023/10/13 02:33:21;;;;;;;8.00;5.03;;;;;;;23.02;59.35;99286.66;2080706;28;20044;-67
2023/10/13 02:34:23;;;;;;;6.72;4.90;;;;;;;23.05;59.19;99285.38;2081211;28;20120;-67
2023/10/13 02:35:30;;;;;;;8.73;4.90;;;;;;;23.06;59.46;99282.44;2077526;28;20415;-67
2023/10/13 02:36:36;;;;;;;5.40;4.90;;;;;;;23.06;59.67;99287.84;2079821;28;20149;-67
2023/10/13 02:37:36;;;;;;;7.90;5.15;;;;;;;23.04;59.27;99278.31;2078831;28;20048;-67
2023/10/13 02:38:45;;;;;;;6.38;4.95;;;;;;;23.06;59.45;99290.56;2079462;28;20140;-67
2023/10/13 02:39:46;;;;;;;6.47;5.10;;;;;;;23.05;59.24;99278.09;2076433;28;20122;-67
2023/10/13 02:40:47;;;;;;;6.45;4.82;;;;;;;23.06;59.14;99284.34;2077018;28;20154;-67
2023/10/13 02:41:50;;;;;;;8.00;5.20;;;;;;;23.06;59.41;99285.16;2074931;28;20064;-67
2023/10/13 02:42:51;;;;;;;5.65;4.63;;;;;;;23.05;59.35;99274.56;2079320;28;20095;-67
2023/10/13 02:43:53;;;;;;;5.07;4.57;;;;;;;23.04;59.37;99273.75;2080599;28;21093;-67
2023/10/13 02:44:57;;;;;;;6.22;5.03;;;;;;;23.09;59.19;99278.47;2080984;28;20528;-67
2023/10/13 02:45:59;;;;;;;6.20;5.13;;;;;;;23.06;58.97;99276.22;2078256;28;20108;-67
2023/10/13 02:47:00;;;;;;;6.65;4.82;;;;;;;23.06;59.57;99274.34;2077933;28;20955;-67
2023/10/13 02:48:12;;;;;;;7.10;5.22;;;;;;;23.06;59.42;99270.81;2079088;28;20076;-67
2023/10/13 02:49:17;;;;;;;6.78;5.50;;;;;;;23.03;59.39;99271.25;2080747;28;20149;-67
2023/10/13 02:50:24;;;;;;;8.10;4.97;;;;;;;23.00;59.67;99274.38;2078075;28;20080;-67
2023/10/13 02:51:31;;;;;;;5.78;4.90;;;;;;;23.01;59.36;99270.63;2077628;28;20077;-67
2023/10/13 02:52:37;;;;;;;6.38;5.63;;;;;;;23.01;59.31;99273.31;2075286;28;20605;-67
2023/10/13 02:53:38;;;;;;;6.65;5.38;;;;;;;23.00;59.95;99274.38;2075744;28;20083;-67
2023/10/13 02:54:46;;;;;;;9.75;5.38;;;;;;;22.97;59.56;99270.22;2079227;28;20083;-67
2023/10/13 02:55:53;;;;;;;6.10;5.13;;;;;;;22.96;59.78;99277.53;2078064;28;20053;-67
2023/10/13 02:56:57;;;;;;;7.68;4.57;;;;;;;22.94;59.79;99276.88;2074425;28;20710;-67
2023/10/13 02:57:57;;;;;;;7.97;5.65;;;;;;;22.95;59.60;99273.13;2079723;28;20045;-67
2023/10/13 02:59:04;;;;;;;8.13;5.30;;;;;;;23.00;59.55;99277.09;2078855;28;20575;-67
2023/10/13 03:00:12;;;;;;;8.13;5.18;;;;;;;22.97;59.20;99270.22;2076588;28;20041;-66
2023/10/13 03:01:19;;;;;;;10.50;5.18;;;;;;;22.97;59.45;99270.22;2080977;28;20057;-67
2023/10/13 03:02:25;;;;;;;6.88;5.15;;;;;;;22.98;59.28;99269.19;2072879;28;20140;-67
2023/10/13 03:03:29;;;;;;;4.93;4.43;;;;;;;23.01;59.20;99276.03;2074976;28;20052;-67
2023/10/13 03:04:31;;;;;;;8.85;5.68;;;;;;;23.00;59.20;99267.09;2083336;28;20052;-67
2023/10/13 03:05:38;;;;;;;7.95;4.72;;;;;;;23.04;59.42;99279.16;2080124;28;20132;-67
2023/10/13 03:06:40;;;;;;;8.25;4.70;;;;;;;23.02;59.47;99275.00;2085046;28;20125;-67
2023/10/13 03:07:43;;;;;;;5.95;5.07;;;;;;;23.02;59.58;99265.00;2083041;28;20080;-67
2023/10/13 03:08:44;;;;;;;8.15;6.03;;;;;;;22.99;59.57;99267.31;2085160;28;20507;-67
2023/10/13 03:09:50;;;;;;;6.35;5.20;;;;;;;23.01;59.80;99278.75;2082601;28;20056;-67
2023/10/13 03:10:54;;;;;;;6.95;5.03;;;;;;;23.00;59.24;99271.69;2078942;28;20053;-67
2023/10/13 03:11:57;;;;;;;5.85;5.25;;;;;;;22.97;59.48;99260.22;2081814;28;20056;-67
2023/10/13 03:12:58;;;;;;;7.78;6.30;;;;;;;22.96;59.75;99266.72;2081812;28;20048;-67
2023/10/13 03:14:06;;;;;;;9.00;5.30;;;;;;;23.00;59.71;99271.69;2081040;28;20130;-67
2023/10/13 03:15:13;;;;;;;7.38;5.28;;;;;;;22.95;59.66;99265.03;2082828;28;20056;-69
2023/10/13 03:16:19;;;;;;;8.38;5.72;;;;;;;22.91;59.89;99271.91;2081492;28;20060;-68
2023/10/13 03:17:32;;;;;;;6.60;5.63;;;;;;;22.90;59.88;99266.69;2078311;28;20610;-68
2023/10/13 03:18:34;;;;;;;6.88;6.00;;;;;;;22.90;59.95;99272.97;2063114;28;20499;-66
2023/10/13 03:19:36;;;;;;;5.78;4.47;;;;;;;22.92;59.77;99268.13;2081000;28;20107;-67
2023/10/13 03:20:42;;;;;;;5.35;4.78;;;;;;;22.93;59.65;99267.09;2080499;28;20530;-67
2023/10/13 03:21:44;;;;;;;7.07;5.70;;;;;;;22.94;59.33;99273.34;2080707;28;20052;-67
2023/10/13 03:22:45;;;;;;;6.88;5.05;;;;;;;22.97;59.42;99268.34;2084373;28;20052;-67
2023/10/13 03:23:47;;;;;;;8.60;5.65;;;;;;;22.97;59.37;99271.06;2081392;28;20092;-66
2023/10/13 03:24:49;;;;;;;6.82;5.60;;;;;;;22.96;59.36;99274.81;2079761;28;20119;-67
2023/10/13 03:25:50;;;;;;;6.85;5.55;;;;;;;22.99;59.28;99268.16;2077677;28;20076;-66
2023/10/13 03:26:52;;;;;;;10.40;5.35;;;;;;;22.97;59.29;99271.06;2080323;28;20044;-67
2023/10/13 03:28:01;;;;;;;8.20;5.68;;;;;;;22.97;59.15;99273.75;2076988;28;20072;-67
2023/10/13 03:29:03;;;;;;;7.57;5.95;;;;;;;22.93;59.43;99269.81;2082515;28;20045;-66
2023/10/13 03:30:10;;;;;;;6.53;5.40;;;;;;;22.94;59.25;99274.16;2076858;28;20508;-67
2023/10/13 03:31:17;;;;;;;8.25;5.38;;;;;;;22.95;59.22;99277.69;2082288;28;20045;-67
2023/10/13 03:32:20;;;;;;;7.65;5.60;;;;;;;22.94;59.47;99273.34;2081889;28;20087;-68
2023/10/13 03:33:25;;;;;;;5.90;5.32;;;;;;;22.94;59.33;99274.16;2079925;28;20057;-67
2023/10/13 03:34:29;;;;;;;8.80;6.90;;;;;;;22.94;59.37;99273.34;2080765;28;20255;-67
2023/10/13 03:35:37;;;;;;;6.93;5.93;;;;;;;22.91;59.43;99279.19;2080335;28;20061;-66
2023/10/13 03:36:57;;;;;;;9.73;5.38;;;;;;;22.90;59.23;99275.66;2079273;28;20056;-66
2023/10/13 03:37:59;;;;;;;9.02;5.70;;;;;;;22.90;59.50;99278.38;2078796;28;20151;-67
2023/10/13 03:38:59;;;;;;;10.52;5.30;;;;;;;22.90;59.72;99272.97;2080928;28;20512;-67
2023/10/13 03:40:06;;;;;;;7.43;5.88;;;;;;;22.89;59.48;99273.97;2075136;28;20128;-67
2023/10/13 03:41:08;;;;;;;6.95;5.97;;;;;;;22.88;59.40;99269.63;2079201;28;20045;-69
2023/10/13 03:42:18;;;;;;;6.00;5.20;;;;;;;22.89;59.51;99273.16;2082716;28;20614;-67
2023/10/13 03:43:21;;;;;;;8.25;6.32;;;;;;;22.87;59.61;99273.38;2081052;28;20100;-67
2023/10/13 03:44:23;;;;;;;9.00;6.32;;;;;;;22.88;59.61;99280.44;2077875;28;20053;-66
2023/10/13 03:45:24;;;;;;;6.88;6.18;;;;;;;22.89;59.42;99276.69;2082541;28;20056;-67
2023/10/13 03:46:26;;;;;;;7.22;5.85;;;;;;;22.90;59.35;99281.06;2076870;28;20129;-68
2023/10/13 03:47:32;;;;;;;8.50;6.22;;;;;;;22.85;59.56;99286.28;2080410;28;20055;-67
2023/10/13 03:48:40;;;;;;;7.28;5.40;;;;;;;22.83;59.74;99285.66;2078897;28;20052;-66
2023/10/13 03:49:41;;;;;;;13.10;7.18;;;;;;;22.79;60.10;99281.75;2076801;28;21663;-67
2023/10/13 03:50:48;;;;;;;6.53;5.88;;;;;;;22.76;60.09;99282.16;2079255;28;20060;-66
2023/10/13 03:51:49;;;;;;;8.80;6.32;;;;;;;22.74;60.44;99282.38;2080795;28;20473;-67
2023/10/13 03:52:53;;;;;;;7.93;7.05;;;;;;;22.65;60.71;99280.13;2081424;28;20052;-67
2023/10/13 03:53:54;;;;;;;8.25;6.68;;;;;;;22.61;60.66;99276.19;2079580;28;20523;-67
2023/10/13 03:54:58;;;;;;;10.57;7.85;;;;;;;22.53;61.19;99272.69;2081118;28;20087;-66
2023/10/13 03:56:07;;;;;;;10.68;6.95;;;;;;;22.51;61.09;99274.78;2079810;28;20045;-67
2023/10/13 03:57:12;;;;;;;8.70;7.30;;;;;;;22.51;61.12;99277.50;2078590;28;20686;-67
2023/10/13 03:58:13;;;;;;;12.65;6.95;;;;;;;22.51;61.02;99280.19;2077411;28;20139;-66
2023/10/13 03:59:19;;;;;;;8.73;6.68;;;;;;;22.56;60.77;99278.72;2083658;28;20049;-67
2023/10/13 04:00:23;;;;;;;10.02;6.85;;;;;;;22.58;60.69;99279.34;2079832;28;20045;-67
2023/10/13 04:01:31;;;;;;;10.57;6.97;;;;;;;22.61;60.56;99279.72;2080444;28;20055;-67
2023/10/13 04:02:32;;;;;;;8.93;6.93;;;;;;;22.63;60.49;99282.22;2078820;28;20436;-67
2023/10/13 04:03:35;;;;;;;7.15;6.20;;;;;;;22.64;60.60;99273.88;2078671;28;20159;-67
2023/10/13 04:04:48;;;;;;;8.45;6.25;;;;;;;22.65;60.24;99269.31;2078394;28;20522;-67
2023/10/13 04:06:06;;;;;;;6.20;5.53;;;;;;;22.64;60.16;99276.59;2076653;28;20072;-67
2023/10/13 04:07:20;;;;;;;10.80;6.50;;;;;;;22.62;60.53;99278.72;2078351;28;20414;-66
2023/10/13 04:10:10;;;;;;;11.07;6.57;;;;;;;22.58;60.34;99280.16;2071640;28;20045;-66
2023/10/13 04:15:20;;;;;;;7.82;6.05;;;;;;;22.65;59.90;99286.38;2077546;28;20056;-67
2023/10/13 04:16:34;;;;;;;8.85;6.20;;;;;;;22.63;60.22;99282.22;2081878;28;20037;-67
2023/10/13 04:17:40;;;;;;;7.25;6.22;;;;;;;22.64;60.09;99284.72;2082682;28;20132;-67
2023/10/13 04:19:03;;;;;;;6.68;5.93;;;;;;;22.64;59.99;99286.59;2083744;28;20049;-67
2023/10/13 04:20:26;;;;;;;8.35;6.97;;;;;;;22.61;60.00;99285.13;2080881;28;20049;-66
2023/10/13 04:21:39;;;;;;;7.95;6.15;;;;;;;22.62;59.90;99285.97;2080099;28;20045;-66
2023/10/13 04:24:38;;;;;;;5.55;4.65;;;;;;;22.69;59.67;99290.31;2080157;28;20504;-66
2023/10/13 04:25:52;;;;;;;7.93;5.13;;;;;;;22.73;59.59;99296.09;2079602;28;20106;-67
2023/10/13 04:28:33;;;;;;;6.18;4.80;;;;;;;22.80;59.48;99288.81;2080530;28;20959;-66
2023/10/13 04:29:51;;;;;;;5.80;5.05;;;;;;;22.81;59.34;99293.16;2076160;28;20067;-65
2023/10/13 04:30:57;;;;;;;7.75;5.32;;;;;;;22.86;59.21;99292.53;2080985;28;20497;-66
2023/10/13 04:32:00;;;;;;;9.45;4.95;;;;;;;22.85;59.13;99289.00;2078998;28;20401;-66
2023/10/13 04:33:35;;;;;;;7.10;5.68;;;;;;;22.87;59.23;99291.47;2081837;28;20041;-67
2023/10/13 04:34:39;;;;;;;10.57;6.88;;;;;;;22.81;59.48;99289.63;2081399;28;20049;-67
2023/10/13 04:35:47;;;;;;;8.18;6.25;;;;;;;22.74;59.43;99287.78;2080510;28;20052;-66
2023/10/13 04:36:57;;;;;;;6.10;5.05;;;;;;;22.76;59.49;99292.97;2080174;28;20457;-66
2023/10/13 04:38:01;;;;;;;8.45;6.63;;;;;;;22.77;59.62;99286.53;2084528;28;20132;-67
2023/10/13 04:39:09;;;;;;;8.15;5.88;;;;;;;22.80;59.34;99293.38;2080754;28;20415;-67
2023/10/13 04:40:11;;;;;;;10.05;5.90;;;;;;;22.82;59.06;99294.84;2080848;28;20427;-67
2023/10/13 04:41:22;;;;;;;8.57;5.80;;;;;;;22.82;59.08;99292.13;2080408;28;20482;-67
2023/10/13 04:42:39;;;;;;;6.93;5.30;;;;;;;22.84;59.12;99291.91;2081003;28;20045;-66
2023/10/13 04:45:02;;;;;;;8.80;5.60;;;;;;;22.86;59.05;99300.63;2082590;28;20495;-67
2023/10/13 04:46:14;;;;;;;6.43;5.28;;;;;;;22.85;59.12;99294.41;2080434;28;20041;-67
2023/10/13 04:47:21;;;;;;;6.65;5.70;;;;;;;22.87;59.03;99294.16;2079202;28;20135;-67
2023/10/13 04:48:38;;;;;;;7.63;5.60;;;;;;;22.87;59.03;99291.47;2081602;28;20049;-66
2023/10/13 04:54:12;;;;;;;8.93;6.70;;;;;;;22.72;59.49;99297.16;2063062;28;20050;-67
2023/10/13 04:55:36;;;;;;;8.00;6.00;;;;;;;22.74;59.40;99300.50;2064497;28;20082;-67
2023/10/13 04:58:10;;;;;;;7.85;5.32;;;;;;;22.67;59.61;99296.97;2062870;28;20048;-66
2023/10/13 05:03:52;;;;;;;8.23;6.93;;;;;;;22.52;60.15;99294.53;2062079;28;20045;-66
2023/10/13 05:05:21;;;;;;;7.35;5.32;;;;;;;22.51;60.04;99285.59;2086341;28;20218;-67
2023/10/13 05:45:24;;;;;;;10.65;7.45;;;;;;;21.89;62.31;99313.94;2080549;28;20128;-67
2023/10/13 05:47:47;;;;;;;11.98;7.35;;;;;;;22.09;61.52;99308.53;2081548;28;20045;-67
2023/10/13 05:49:29;;;;;;;9.25;7.07;;;;;;;22.14;61.47;99313.31;2079432;28;20060;-67
2023/10/13 05:50:57;;;;;;;8.18;5.90;;;;;;;22.21;61.23;99311.47;2081928;28;20041;-67
2023/10/13 05:52:06;;;;;;;8.18;6.95;;;;;;;22.26;60.92;99317.91;2076746;28;20423;-67
2023/10/13 06:29:21;;;;;;;11.10;7.68;;;;;;;22.23;61.68;99363.41;2074636;28;20061;-66
2023/10/13 06:30:22;;;;;;;8.75;6.60;;;;;;;22.27;61.34;99364.66;2076797;28;20053;-67
2023/10/13 06:31:25;;;;;;;10.48;8.40;;;;;;;22.29;61.47;99360.72;2074047;28;20048;-67
2023/10/13 06:32:27;;;;;;;12.23;7.30;;;;;;;22.34;61.84;99361.94;2071261;28;20062;-67
2023/10/13 06:33:29;;;;;;;11.60;7.35;;;;;;;22.35;62.09;99358.22;2072276;28;20179;-66
2023/10/13 06:34:37;;;;;;;10.88;6.50;;;;;;;22.38;61.56;99360.50;2069027;28;20404;-67
2023/10/13 06:35:41;;;;;;;13.80;6.55;;;;;;;22.42;61.60;99359.00;2073689;28;20059;-66
2023/10/13 06:36:46;;;;;;;13.05;5.88;;;;;;;22.45;61.49;99361.28;2072272;28;20050;-64
2023/10/13 06:37:48;;;;;;;9.32;5.97;;;;;;;22.47;61.51;99368.16;2077131;28;20049;-67
2023/10/13 06:40:25;;;;;;;11.90;6.53;;;;;;;22.50;61.58;99364.19;2079340;28;20048;-67
2023/10/13 06:41:30;;;;;;;21.00;7.13;;;;;;;22.50;61.39;99372.31;2082001;28;20053;-67
2023/10/13 06:42:34;;;;;;;13.68;5.60;;;;;;;22.53;61.28;99377.28;2080068;28;20736;-67
2023/10/13 06:43:39;;;;;;;15.73;5.72;;;;;;;22.55;61.11;99366.28;2082536;28;20063;-67
2023/10/13 06:44:45;;;;;;;9.50;5.88;;;;;;;22.57;60.97;99380.44;2083382;28;20660;-66
2023/10/13 06:45:56;;;;;;;15.20;6.82;;;;;;;22.57;61.04;99372.31;2074540;28;20163;-67